Terminal Aerodrome Forecast
Issued by NWS

Home | Current Version | Previous Version | Text Only | Print | Product List | Glossary On
Versions: 1 2 3 4 5 6 7 8 9 10 11 12 13 14 15 16 17 18 19 20 21 22 23 24 25
000
FTUS45 KGJT 291748
TAFEGE
TAF
KEGE 291748Z 2918/3018 23004KT P6SM -RA BKN050 OVC070
      TEMPO 2918/2920 5SM -RA BR SCT020 OVC040
     FM292000 25008KT P6SM VCTS SCT040 BKN060CB BKN120
      TEMPO 2920/2924 VRB15G25KT 3SM +TSRA SCT030 OVC045CB
     FM300000 26010KT P6SM -TSRA SCT045CB OVC060
      TEMPO 3000/3004 VRB10G20KT 3SM +TSRA OVC040CB
     FM300600 10004KT P6SM VCSH BKN060 BKN090
     FM301200 VRB03KT P6SM VCSH SCT060 BKN090=

USA.gov is the U.S. government's official web portal to all federal, state and local government web resources and services.